Time;durP1;ratioP1;P1;durP2;ratioP2;P2;SDS_P1;SDS_P2;PMS_P1;PMS_P2;Temp;Humidity;BMP_temperature;BMP_pressure;BME280_temperature;BME280_humidity;BME280_pressure;Samples;Min_cycle;Max_cycle;Signal;HPM_P1;HPM_P2
2022/04/27 00:01:23;;;;;;;;;;;8.30;99.90;;;;;;5069709;28;19932;-74
2022/04/27 00:03:50;;;;;;;;;;;8.30;99.90;;;;;;5069735;28;19955;-73
2022/04/27 00:06:17;;;;;;;;;;;8.20;99.90;;;;;;5070291;28;19928;-74
2022/04/27 00:08:44;;;;;;;;;;;8.10;99.90;;;;;;5070253;28;19925;-73
2022/04/27 00:11:11;;;;;;;;;;;8.00;99.90;;;;;;5070064;28;19925;-75
2022/04/27 00:13:37;;;;;;;;;;;7.90;99.90;;;;;;5071716;28;19971;-74
2022/04/27 00:16:05;;;;;;;;;;;7.80;99.90;;;;;;5070915;28;20304;-74
2022/04/27 00:18:33;;;;;;;;;;;7.70;99.90;;;;;;5045710;28;19925;-73
2022/04/27 00:21:00;;;;;;;;;;;7.60;99.90;;;;;;5037820;28;19932;-73
2022/04/27 00:23:27;;;;;;;;;;;7.60;99.90;;;;;;5033532;28;19925;-73
2022/04/27 00:25:54;;;;;;;;;;;7.50;99.90;;;;;;5033638;28;19925;-74
2022/04/27 00:28:21;;;;;;;;;;;7.40;99.90;;;;;;5033840;28;19925;-73
2022/04/27 00:30:47;;;;;;;;;;;7.40;99.90;;;;;;5033665;28;19925;-74
2022/04/27 00:33:15;;;;;;;;;;;7.30;99.90;;;;;;5033667;28;19925;-73
2022/04/27 00:35:43;;;;;;;;;;;7.30;99.90;;;;;;5033662;28;19932;-74
2022/04/27 00:38:10;;;;;;;;;;;7.30;99.90;;;;;;5033876;28;20028;-74
2022/04/27 00:40:37;;;;;;;;;;;7.30;99.90;;;;;;5033553;28;19925;-74
2022/04/27 00:43:04;;;;;;;;;;;7.20;99.90;;;;;;5033417;28;19925;-75
2022/04/27 00:45:31;;;;;;;;;;;7.20;99.90;;;;;;5033000;28;19925;-73
2022/04/27 00:47:58;;;;;;;;;;;7.20;99.90;;;;;;5033376;28;19925;-73
2022/04/27 00:50:24;;;;;;;;;;;7.10;99.90;;;;;;5033215;28;19925;-75
2022/04/27 00:52:54;;;;;;;;;;;7.00;99.90;;;;;;5033052;28;20019;-74
2022/04/27 00:55:20;;;;;;;;;;;7.00;99.90;;;;;;5033016;28;19925;-74
2022/04/27 00:57:47;;;;;;;;;;;7.00;99.90;;;;;;5032945;28;20028;-74
2022/04/27 01:00:15;;;;;;;;;;;6.90;99.90;;;;;;5032748;28;19925;-74
2022/04/27 01:02:42;;;;;;;;;;;6.90;99.90;;;;;;5033085;28;19968;-74
2022/04/27 01:05:11;;;;;;;;;;;6.80;99.90;;;;;;5032903;28;20008;-75
2022/04/27 01:07:39;;;;;;;;;;;6.80;99.90;;;;;;5032977;28;20293;-75
2022/04/27 01:10:09;;;;;;;;;;;6.80;99.90;;;;;;5032796;28;19932;-75
2022/04/27 01:12:36;;;;;;;;;;;6.80;99.90;;;;;;5032553;28;20369;-73
2022/04/27 01:15:10;;;;;;;;;;;6.80;99.90;;;;;;5032362;28;19964;-73
2022/04/27 01:17:38;;;;;;;;;;;6.70;99.90;;;;;;5032990;28;20343;-74
2022/04/27 01:20:06;;;;;;;;;;;6.70;99.90;;;;;;5032900;28;20373;-74
2022/04/27 01:22:34;;;;;;;;;;;6.70;99.90;;;;;;5032745;28;19925;-74
2022/04/27 01:25:02;;;;;;;;;;;6.70;99.90;;;;;;5031946;28;20414;-74
2022/04/27 01:27:29;;;;;;;;;;;6.70;99.90;;;;;;5032794;28;20384;-73
2022/04/27 01:29:56;;;;;;;;;;;6.70;99.90;;;;;;5031969;28;19932;-73
2022/04/27 01:32:23;;;;;;;;;;;6.70;99.90;;;;;;5032556;28;19925;-73
2022/04/27 01:34:50;;;;;;;;;;;6.70;99.90;;;;;;5032667;28;19929;-73
2022/04/27 01:40:02;;;;;;;;;;;6.70;99.90;;;;;;5032323;28;19929;-73
2022/04/27 01:42:30;;;;;;;;;;;6.70;99.90;;;;;;5032518;28;19929;-73
2022/04/27 01:44:57;;;;;;;;;;;6.70;99.90;;;;;;5032055;28;19929;-75
2022/04/27 01:47:24;;;;;;;;;;;6.70;99.90;;;;;;5032281;28;19929;-73
2022/04/27 01:49:51;;;;;;;;;;;6.60;99.90;;;;;;5032214;28;19929;-74
2022/04/27 01:55:04;;;;;;;;;;;6.60;99.90;;;;;;5031821;28;19925;-73
2022/04/27 01:57:33;;;;;;;;;;;6.50;99.90;;;;;;5032336;28;19952;-74
2022/04/27 02:00:00;;;;;;;;;;;6.50;99.90;;;;;;5031973;28;19991;-74
2022/04/27 02:02:28;;;;;;;;;;;6.40;99.90;;;;;;5031958;28;19926;-74
2022/04/27 02:04:57;;;;;;;;;;;6.40;99.90;;;;;;5031761;28;19925;-73
2022/04/27 02:07:25;;;;;;;;;;;6.40;99.90;;;;;;5032004;28;19929;-74
2022/04/27 02:09:53;;;;;;;;;;;6.40;99.90;;;;;;5032071;28;19926;-74
2022/04/27 02:12:22;;;;;;;;;;;6.30;99.90;;;;;;5032167;28;19929;-73
2022/04/27 02:15:02;;;;;;;;;;;6.30;99.90;;;;;;5031567;28;19925;-74
2022/04/27 02:17:31;;;;;;;;;;;6.30;99.90;;;;;;5031997;28;19956;-74
2022/04/27 02:19:57;;;;;;;;;;;6.30;99.90;;;;;;5032174;28;19925;-74
2022/04/27 02:22:25;;;;;;;;;;;6.30;99.90;;;;;;5031877;28;19925;-73
2022/04/27 02:24:52;;;;;;;;;;;6.30;99.90;;;;;;5031301;28;19929;-74
2022/04/27 02:27:20;;;;;;;;;;;6.20;99.90;;;;;;5031993;28;19931;-74
2022/04/27 02:29:48;;;;;;;;;;;6.20;99.90;;;;;;5031324;28;20355;-74
2022/04/27 02:32:23;;;;;;;;;;;6.20;99.90;;;;;;5031564;28;19925;-73
2022/04/27 02:34:51;;;;;;;;;;;6.10;99.90;;;;;;5031420;28;19936;-74
2022/04/27 02:37:18;;;;;;;;;;;6.10;99.90;;;;;;5030560;28;20400;-74
2022/04/27 02:39:50;;;;;;;;;;;6.10;99.90;;;;;;5031420;28;19929;-74
2022/04/27 02:42:17;;;;;;;;;;;6.00;99.90;;;;;;5031458;28;19964;-73
2022/04/27 02:44:45;;;;;;;;;;;6.00;99.90;;;;;;5031214;28;19925;-73
2022/04/27 02:47:16;;;;;;;;;;;5.90;99.90;;;;;;5031392;28;19978;-73
2022/04/27 02:52:28;;;;;;;;;;;5.80;99.90;;;;;;5031044;28;19921;-70
2022/04/27 02:55:09;;;;;;;;;;;5.80;99.90;;;;;;5031017;28;19960;-74
2022/04/27 02:57:38;;;;;;;;;;;5.80;99.90;;;;;;5031071;28;20311;-74
2022/04/27 03:00:06;;;;;;;;;;;5.70;99.90;;;;;;5030766;28;19925;-74
2022/04/27 03:02:34;;;;;;;;;;;5.70;99.90;;;;;;5030902;28;19925;-74
2022/04/27 03:05:02;;;;;;;;;;;5.70;99.90;;;;;;5030479;28;19925;-74
2022/04/27 03:07:30;;;;;;;;;;;5.70;99.90;;;;;;5030972;28;19929;-74
2022/04/27 03:09:57;;;;;;;;;;;5.60;99.90;;;;;;5030824;28;19925;-74
2022/04/27 03:12:25;;;;;;;;;;;5.60;99.90;;;;;;5030690;28;19995;-74
2022/04/27 03:14:52;;;;;;;;;;;5.50;99.90;;;;;;5030271;28;19972;-73
2022/04/27 03:17:19;;;;;;;;;;;5.40;99.90;;;;;;5031019;28;19933;-74
2022/04/27 03:19:47;;;;;;;;;;;5.40;99.90;;;;;;5030513;28;19925;-75
2022/04/27 03:22:15;;;;;;;;;;;5.30;99.90;;;;;;5030691;28;19929;-74
2022/04/27 03:24:42;;;;;;;;;;;5.30;99.90;;;;;;5030150;28;19940;-74
2022/04/27 03:27:20;;;;;;;;;;;5.30;99.90;;;;;;5030573;28;19925;-74
2022/04/27 03:29:49;;;;;;;;;;;5.30;99.90;;;;;;5030266;28;20407;-74
2022/04/27 03:32:16;;;;;;;;;;;5.30;99.90;;;;;;5030811;28;20388;-74
2022/04/27 03:34:51;;;;;;;;;;;5.20;99.90;;;;;;5030611;28;19932;-74
2022/04/27 03:37:20;;;;;;;;;;;5.20;99.90;;;;;;5030647;28;19925;-74
2022/04/27 03:39:47;;;;;;;;;;;5.20;99.90;;;;;;5030221;28;20335;-75
2022/04/27 03:42:19;;;;;;;;;;;5.10;99.90;;;;;;5030045;28;20312;-74
2022/04/27 03:44:50;;;;;;;;;;;5.10;99.90;;;;;;5029971;28;19925;-74
2022/04/27 03:47:20;;;;;;;;;;;5.10;99.90;;;;;;5030582;28;20387;-74
2022/04/27 03:49:46;;;;;;;;;;;5.00;99.90;;;;;;5030266;28;20285;-74
2022/04/27 03:52:15;;;;;;;;;;;5.00;99.90;;;;;;5030479;28;19925;-75
2022/04/27 03:54:44;;;;;;;;;;;5.00;99.90;;;;;;5029800;28;19925;-75
2022/04/27 03:57:11;;;;;;;;;;;4.90;99.90;;;;;;5030542;28;19948;-73
2022/04/27 03:59:38;;;;;;;;;;;4.90;99.90;;;;;;5030322;28;19925;-74
2022/04/27 04:02:06;;;;;;;;;;;4.90;99.90;;;;;;5046964;28;19925;-74
2022/04/27 04:04:34;;;;;;;;;;;4.90;99.90;;;;;;5029914;28;19932;-74
2022/04/27 04:07:02;;;;;;;;;;;4.80;99.90;;;;;;5030390;28;19948;-74
2022/04/27 04:09:35;;;;;;;;;;;4.80;99.90;;;;;;5030024;28;20307;-75
2022/04/27 04:12:03;;;;;;;;;;;4.80;99.90;;;;;;5030019;28;19932;-74
2022/04/27 04:14:30;;;;;;;;;;;4.80;99.90;;;;;;5031066;28;19925;-73
2022/04/27 04:17:01;;;;;;;;;;;4.70;99.90;;;;;;5046704;28;19925;-74
2022/04/27 04:19:44;;;;;;;;;;;4.70;99.90;;;;;;5046439;28;19925;-74
2022/04/27 04:22:38;;;;;;;;;;;4.70;99.90;;;;;;5028156;28;19932;-73
2022/04/27 04:28:32;;;;;;;;;;;4.60;99.90;;;;;;5029951;28;19925;-74
2022/04/27 04:30:59;;;;;;;;;;;4.60;99.90;;;;;;5029689;28;19925;-74
2022/04/27 04:33:43;;;;;;;;;;;4.50;99.90;;;;;;5029733;28;19933;-74
2022/04/27 04:36:12;;;;;;;;;;;4.50;99.90;;;;;;5030069;28;19961;-73
2022/04/27 04:38:41;;;;;;;;;;;4.50;99.90;;;;;;5029901;28;19925;-74
2022/04/27 04:41:11;;;;;;;;;;;4.50;99.90;;;;;;5029337;28;20388;-74
2022/04/27 04:43:46;;;;;;;;;;;4.50;99.90;;;;;;5046507;28;20384;-74
2022/04/27 04:46:13;;;;;;;;;;;4.50;99.90;;;;;;5029675;28;19957;-74
2022/04/27 04:49:15;;;;;;;;;;;4.50;99.90;;;;;;4969513;28;19982;-74
2022/04/27 04:52:11;;;;;;;;;;;4.50;99.90;;;;;;4993564;28;19933;-74
2022/04/27 04:55:10;;;;;;;;;;;4.50;99.90;;;;;;5030389;28;19931;-74
2022/04/27 04:57:58;;;;;;;;;;;4.60;99.90;;;;;;5031371;28;20288;-73
2022/04/27 05:00:48;;;;;;;;;;;4.60;99.90;;;;;;5031657;28;19931;-73
2022/04/27 05:03:36;;;;;;;;;;;4.60;99.90;;;;;;5043865;28;20003;-73
2022/04/27 05:06:26;;;;;;;;;;;4.70;99.90;;;;;;5052961;28;19925;-73
2022/04/27 05:09:01;;;;;;;;;;;4.70;99.90;;;;;;5052948;28;19925;-74
2022/04/27 05:11:54;;;;;;;;;;;4.70;99.90;;;;;;5018205;28;19932;-73
2022/04/27 05:14:37;;;;;;;;;;;4.70;99.90;;;;;;5033059;28;19957;-74
2022/04/27 05:17:18;;;;;;;;;;;4.70;99.90;;;;;;5033263;28;20030;-74
2022/04/27 05:20:04;;;;;;;;;;;4.70;99.90;;;;;;5032930;28;19933;-73
2022/04/27 05:22:51;;;;;;;;;;;4.70;99.90;;;;;;5023295;28;19929;-73
2022/04/27 05:25:33;;;;;;;;;;;4.70;99.90;;;;;;5032297;28;19925;-74
2022/04/27 05:28:22;;;;;;;;;;;4.70;99.90;;;;;;5033713;28;20202;-73
2022/04/27 05:34:14;;;;;;;;;;;4.70;99.90;;;;;;4975312;28;19933;-73
2022/04/27 05:36:44;;;;;;;;;;;4.80;99.90;;;;;;4981769;28;19968;-73
2022/04/27 05:39:11;;;;;;;;;;;4.90;99.90;;;;;;5033800;28;19970;-73
2022/04/27 05:41:53;;;;;;;;;;;4.90;99.90;;;;;;5052768;28;20387;-73
2022/04/27 05:44:41;;;;;;;;;;;4.90;99.90;;;;;;5052561;28;19940;-74
2022/04/27 05:47:29;;;;;;;;;;;5.00;99.90;;;;;;5042060;28;19998;-75
2022/04/27 05:50:12;;;;;;;;;;;5.10;99.90;;;;;;5052127;28;20296;-75
2022/04/27 05:52:54;;;;;;;;;;;5.10;99.90;;;;;;5052282;28;19964;-74
2022/04/27 05:55:44;;;;;;;;;;;5.20;99.90;;;;;;5052974;28;19925;-73
2022/04/27 05:58:37;;;;;;;;;;;5.30;99.90;;;;;;5052974;28;19979;-74
2022/04/27 06:01:27;;;;;;;;;;;5.40;99.90;;;;;;5048745;28;19932;-73
2022/04/27 06:04:07;;;;;;;;;;;5.50;99.90;;;;;;5038950;28;20376;-74
2022/04/27 06:06:40;;;;;;;;;;;5.60;99.90;;;;;;5032632;28;19933;-74
2022/04/27 06:09:10;;;;;;;;;;;5.80;99.90;;;;;;5032252;28;19925;-74
2022/04/27 06:11:49;;;;;;;;;;;5.80;99.90;;;;;;5032047;28;19931;-73
2022/04/27 06:14:36;;;;;;;;;;;5.90;99.90;;;;;;5033334;28;20055;-72
2022/04/27 06:17:04;;;;;;;;;;;6.00;99.90;;;;;;5035818;28;20438;-74
2022/04/27 06:19:33;;;;;;;;;;;6.10;99.90;;;;;;5042461;28;19931;-74
2022/04/27 06:22:02;;;;;;;;;;;6.30;99.90;;;;;;5047967;28;20315;-75
2022/04/27 06:24:33;;;;;;;;;;;6.40;99.90;;;;;;5039211;28;19994;-76
2022/04/27 06:27:18;;;;;;;;;;;6.60;99.90;;;;;;5039376;28;19948;-77
2022/04/27 06:29:46;;;;;;;;;;;6.70;99.90;;;;;;5033005;28;20408;-78
2022/04/27 06:32:13;;;;;;;;;;;6.80;99.90;;;;;;5037498;28;19933;-76
2022/04/27 06:34:42;;;;;;;;;;;6.90;99.90;;;;;;5038615;28;20349;-74
2022/04/27 06:37:09;;;;;;;;;;;7.00;99.90;;;;;;5040867;28;19974;-72
2022/04/27 06:39:40;;;;;;;;;;;7.10;99.90;;;;;;5031646;28;19932;-73
2022/04/27 06:42:08;;;;;;;;;;;7.20;99.90;;;;;;5042415;28;19925;-72
2022/04/27 06:44:35;;;;;;;;;;;7.30;99.90;;;;;;5031907;28;19940;-72
2022/04/27 06:47:20;;;;;;;;;;;7.40;99.90;;;;;;5032297;28;19931;-72
2022/04/27 06:50:08;;;;;;;;;;;7.50;99.90;;;;;;5034093;28;20018;-72
2022/04/27 06:52:55;;;;;;;;;;;7.50;99.90;;;;;;5044513;28;19936;-72
2022/04/27 06:55:40;;;;;;;;;;;7.60;99.90;;;;;;5052129;28;19931;-73
2022/04/27 06:58:22;;;;;;;;;;;7.70;99.90;;;;;;5051914;28;19931;-73
2022/04/27 07:01:00;;;;;;;;;;;7.80;99.90;;;;;;5050804;28;19932;-73
2022/04/27 07:03:31;;;;;;;;;;;7.90;99.90;;;;;;5050209;28;20400;-73
2022/04/27 07:06:00;;;;;;;;;;;8.00;99.90;;;;;;5050542;28;19964;-73
2022/04/27 07:08:27;;;;;;;;;;;8.10;99.90;;;;;;5050412;28;19924;-72
2022/04/27 07:10:55;;;;;;;;;;;8.20;99.90;;;;;;5050208;28;19929;-73
2022/04/27 07:13:22;;;;;;;;;;;8.30;99.90;;;;;;5050338;28;19928;-72
2022/04/27 07:15:49;;;;;;;;;;;8.40;99.90;;;;;;5050369;28;19929;-73
2022/04/27 07:18:16;;;;;;;;;;;8.50;99.90;;;;;;5042350;28;19925;-72
2022/04/27 07:20:42;;;;;;;;;;;8.70;99.90;;;;;;5040648;28;19925;-73
2022/04/27 07:23:10;;;;;;;;;;;8.80;99.90;;;;;;5038866;28;19924;-73
2022/04/27 07:25:37;;;;;;;;;;;8.90;99.90;;;;;;5036051;28;20380;-73
2022/04/27 07:28:05;;;;;;;;;;;8.90;99.90;;;;;;5042738;28;19971;-68
2022/04/27 07:30:31;;;;;;;;;;;9.10;99.90;;;;;;5043056;28;20400;-72
2022/04/27 07:32:58;;;;;;;;;;;9.20;99.90;;;;;;5037476;28;19971;-73
2022/04/27 07:35:25;;;;;;;;;;;9.30;99.90;;;;;;5038731;28;19928;-74
2022/04/27 07:37:52;;;;;;;;;;;9.40;99.90;;;;;;5037834;28;20312;-72
2022/04/27 07:40:20;;;;;;;;;;;9.50;99.90;;;;;;5030287;28;19932;-73
2022/04/27 07:42:48;;;;;;;;;;;9.70;99.90;;;;;;5037809;28;19925;-73
2022/04/27 07:45:14;;;;;;;;;;;9.80;99.90;;;;;;5047995;28;19932;-73
2022/04/27 07:47:41;;;;;;;;;;;9.90;99.90;;;;;;5049901;28;19931;-73
2022/04/27 07:50:09;;;;;;;;;;;10.00;99.90;;;;;;5049829;28;19925;-74
2022/04/27 07:52:36;;;;;;;;;;;10.10;99.90;;;;;;5049977;28;19932;-74
2022/04/27 07:55:03;;;;;;;;;;;10.20;99.90;;;;;;5050194;28;19937;-72
2022/04/27 07:57:31;;;;;;;;;;;10.30;99.90;;;;;;5049792;28;20434;-73
2022/04/27 07:59:58;;;;;;;;;;;10.40;99.90;;;;;;5050313;28;19928;-73
2022/04/27 08:02:25;;;;;;;;;;;10.50;99.90;;;;;;5049501;28;19932;-73
2022/04/27 08:04:52;;;;;;;;;;;10.50;99.90;;;;;;5049608;28;19935;-74
2022/04/27 08:07:19;;;;;;;;;;;10.60;99.90;;;;;;5049503;28;20373;-73
2022/04/27 08:09:45;;;;;;;;;;;10.60;99.90;;;;;;5050003;28;19925;-73
2022/04/27 08:12:12;;;;;;;;;;;10.70;99.90;;;;;;5032263;28;19932;-73
2022/04/27 08:14:40;;;;;;;;;;;10.80;99.90;;;;;;5029626;28;19929;-73
2022/04/27 08:17:07;;;;;;;;;;;10.80;99.90;;;;;;5030166;28;19932;-73
2022/04/27 08:19:34;;;;;;;;;;;10.90;99.90;;;;;;5029643;28;19934;-73
2022/04/27 08:22:02;;;;;;;;;;;11.00;99.90;;;;;;5030188;28;19926;-73
2022/04/27 08:24:29;;;;;;;;;;;11.10;99.90;;;;;;5029263;28;19932;-73
2022/04/27 08:26:56;;;;;;;;;;;11.20;99.90;;;;;;5030082;28;19925;-73
2022/04/27 08:29:23;;;;;;;;;;;11.20;99.90;;;;;;5029377;28;19929;-74
2022/04/27 08:31:53;;;;;;;;;;;11.30;99.90;;;;;;5029774;28;19925;-73
2022/04/27 08:34:19;;;;;;;;;;;11.40;99.90;;;;;;5029894;28;20373;-73
2022/04/27 08:36:46;;;;;;;;;;;11.40;99.90;;;;;;5033540;28;19931;-73
2022/04/27 08:39:13;;;;;;;;;;;11.50;99.90;;;;;;5033138;28;19936;-73
2022/04/27 08:41:40;;;;;;;;;;;11.60;99.90;;;;;;5033878;28;19925;-73
2022/04/27 08:44:08;;;;;;;;;;;11.70;99.90;;;;;;5033372;28;19925;-73
2022/04/27 08:46:35;;;;;;;;;;;11.70;99.90;;;;;;5033487;28;19992;-73
2022/04/27 08:49:09;;;;;;;;;;;11.80;99.90;;;;;;5033093;28;19932;-72
2022/04/27 08:51:36;;;;;;;;;;;11.80;99.90;;;;;;5033226;28;19925;-75
2022/04/27 08:54:03;;;;;;;;;;;12.00;99.90;;;;;;5033016;28;19925;-73
2022/04/27 08:56:33;;;;;;;;;;;12.10;99.90;;;;;;5032689;28;20343;-73
2022/04/27 08:59:01;;;;;;;;;;;12.00;99.90;;;;;;5032966;28;19979;-74
2022/04/27 09:01:28;;;;;;;;;;;12.10;99.90;;;;;;5033053;28;19925;-73
2022/04/27 09:04:11;;;;;;;;;;;12.10;99.90;;;;;;5032570;28;19929;-74
2022/04/27 09:06:40;;;;;;;;;;;12.20;99.90;;;;;;5032826;28;19925;-73
2022/04/27 09:09:10;;;;;;;;;;;12.30;99.90;;;;;;5032663;28;19932;-73
2022/04/27 09:11:37;;;;;;;;;;;12.40;99.90;;;;;;5032594;28;20304;-73
2022/04/27 09:14:06;;;;;;;;;;;12.50;99.90;;;;;;5032449;28;20112;-73
2022/04/27 09:20:46;;;;;;;;;;;12.60;99.90;;;;;;5032784;28;20397;-72
2022/04/27 09:22:07;;;;;;;;;;;12.80;99.90;;;;;;5032793;28;20300;-74
2022/04/27 09:24:47;;;;;;;;;;;12.90;99.90;;;;;;5032161;28;19939;-74
2022/04/27 09:27:17;;;;;;;;;;;12.90;99.90;;;;;;5032396;28;20033;-75
2022/04/27 09:29:44;;;;;;;;;;;13.10;99.90;;;;;;5032165;28;19925;-73
2022/04/27 09:32:15;;;;;;;;;;;13.20;99.90;;;;;;5040781;28;20355;-73
2022/04/27 09:34:46;;;;;;;;;;;13.30;99.90;;;;;;5032245;28;19932;-73
2022/04/27 09:37:15;;;;;;;;;;;13.40;99.90;;;;;;5032300;28;20344;-73
2022/04/27 09:39:43;;;;;;;;;;;13.50;99.90;;;;;;5032147;28;19925;-73
2022/04/27 09:42:10;;;;;;;;;;;13.60;99.90;;;;;;5032571;28;19955;-73
2022/04/27 09:44:38;;;;;;;;;;;13.50;99.90;;;;;;5031806;28;19925;-73
2022/04/27 09:47:05;;;;;;;;;;;13.60;99.90;;;;;;5042177;28;19968;-74
2022/04/27 09:49:34;;;;;;;;;;;13.80;99.90;;;;;;5036397;28;19933;-73
2022/04/27 09:52:01;;;;;;;;;;;13.90;99.90;;;;;;5032023;28;20411;-73
2022/04/27 09:54:31;;;;;;;;;;;14.10;99.90;;;;;;5031376;28;20312;-73
2022/04/27 09:56:58;;;;;;;;;;;14.20;99.90;;;;;;5031809;28;19935;-74
2022/04/27 09:59:29;;;;;;;;;;;14.20;99.90;;;;;;5032167;28;20419;-71
2022/04/27 10:01:57;;;;;;;;;;;14.30;99.90;;;;;;5033741;28;19926;-73
2022/04/27 10:04:26;;;;;;;;;;;14.50;99.90;;;;;;5035081;28;19925;-73
2022/04/27 10:06:53;;;;;;;;;;;14.40;99.90;;;;;;5036654;28;19936;-73
2022/04/27 10:09:20;;;;;;;;;;;14.40;99.90;;;;;;5035977;28;19929;-73
2022/04/27 10:11:48;;;;;;;;;;;14.50;99.90;;;;;;5038286;28;19925;-73
2022/04/27 10:14:15;;;;;;;;;;;14.60;99.90;;;;;;5033791;28;19925;-73
2022/04/27 10:16:42;;;;;;;;;;;14.70;99.90;;;;;;5034029;28;19929;-74
2022/04/27 10:19:10;;;;;;;;;;;14.70;99.90;;;;;;5034091;28;19925;-72
2022/04/27 10:21:39;;;;;;;;;;;14.80;99.90;;;;;;5034992;28;19925;-74
2022/04/27 10:24:06;;;;;;;;;;;15.00;99.90;;;;;;5038132;28;20400;-73
2022/04/27 10:26:33;;;;;;;;;;;15.00;99.90;;;;;;5034202;28;19939;-73
2022/04/27 10:29:02;;;;;;;;;;;15.20;99.90;;;;;;5031394;28;19925;-73
2022/04/27 10:31:48;;;;;;;;;;;15.20;99.90;;;;;;5040703;28;19924;-73
2022/04/27 10:34:19;;;;;;;;;;;15.30;99.90;;;;;;5038184;28;19928;-70
2022/04/27 10:36:47;;;;;;;;;;;15.50;99.90;;;;;;5048268;28;19929;-74
2022/04/27 10:39:18;;;;;;;;;;;15.60;99.90;;;;;;5051051;28;20397;-73
2022/04/27 10:41:49;;;;;;;;;;;15.70;99.90;;;;;;5043817;28;19925;-74
2022/04/27 10:44:17;;;;;;;;;;;15.70;99.90;;;;;;5033558;28;19925;-73
2022/04/27 10:46:44;;;;;;;;;;;15.80;99.90;;;;;;5030499;28;19929;-73
2022/04/27 10:49:22;;;;;;;;;;;15.80;99.90;;;;;;5030566;28;19932;-73
2022/04/27 10:52:01;;;;;;;;;;;15.90;99.90;;;;;;5058464;28;19925;-74
2022/04/27 10:54:31;;;;;;;;;;;15.90;99.90;;;;;;5069836;28;19956;-74
2022/04/27 10:57:12;;;;;;;;;;;15.80;99.90;;;;;;5070353;28;19935;-73
2022/04/27 10:59:48;;;;;;;;;;;16.10;99.90;;;;;;5068653;28;20403;-73
2022/04/27 11:02:34;;;;;;;;;;;16.00;99.90;;;;;;5070311;28;20437;-73
2022/04/27 11:05:00;;;;;;;;;;;15.90;99.90;;;;;;5070074;28;19925;-73
2022/04/27 11:07:32;;;;;;;;;;;16.10;99.90;;;;;;5070013;28;19968;-74
2022/04/27 11:10:10;;;;;;;;;;;16.30;99.90;;;;;;5070076;28;19932;-73
2022/04/27 11:12:38;;;;;;;;;;;16.60;99.90;;;;;;5030063;28;19925;-73
2022/04/27 11:15:08;;;;;;;;;;;16.80;99.90;;;;;;5030125;28;20353;-72
2022/04/27 11:17:36;;;;;;;;;;;16.90;99.90;;;;;;5039048;28;19929;-73
2022/04/27 11:20:04;;;;;;;;;;;17.00;99.90;;;;;;5033256;28;19925;-73
2022/04/27 11:22:37;;;;;;;;;;;17.10;99.90;;;;;;5029857;28;20330;-72
2022/04/27 11:25:05;;;;;;;;;;;17.30;99.90;;;;;;5064607;23;19924;-74
2022/04/27 11:27:33;;;;;;;;;;;17.30;99.90;;;;;;5060245;28;20005;-74
2022/04/27 11:30:02;;;;;;;;;;;17.20;99.90;;;;;;5066087;28;20043;-74
2022/04/27 11:32:30;;;;;;;;;;;17.30;99.90;;;;;;5070268;28;19974;-74
2022/04/27 11:34:57;;;;;;;;;;;17.30;99.90;;;;;;5070047;28;19932;-74
2022/04/27 11:37:24;;;;;;;;;;;17.50;99.90;;;;;;5070618;28;19978;-75
2022/04/27 11:39:51;;;;;;;;;;;17.80;99.90;;;;;;5042085;28;19925;-76
2022/04/27 11:42:18;;;;;;;;;;;18.10;99.90;;;;;;5042455;28;19983;-75
2022/04/27 11:44:51;;;;;;;;;;;18.40;99.90;;;;;;5040803;28;19976;-76
2022/04/27 11:47:29;;;;;;;;;;;19.60;99.90;;;;;;5056040;28;20027;-75
2022/04/27 11:49:58;;;;;;;;;;;21.20;99.90;;;;;;5057700;28;19924;-75
2022/04/27 11:52:25;;;;;;;;;;;22.40;99.90;;;;;;5053162;28;19931;-76
2022/04/27 11:54:52;;;;;;;;;;;23.30;99.90;;;;;;5058135;28;19925;-75
2022/04/27 11:57:23;;;;;;;;;;;23.70;99.90;;;;;;5057722;28;20015;-76
2022/04/27 11:59:51;;;;;;;;;;;24.10;99.90;;;;;;5066668;28;20445;-78
2022/04/27 12:02:23;;;;;;;;;;;25.10;99.90;;;;;;5069729;28;19935;-78
2022/04/27 12:04:50;;;;;;;;;;;25.30;99.90;;;;;;5069970;28;20392;-77
2022/04/27 12:07:20;;;;;;;;;;;25.00;99.90;;;;;;5069904;28;19943;-77
2022/04/27 12:09:56;;;;;;;;;;;25.50;99.90;;;;;;5072400;28;19925;-76
2022/04/27 12:12:23;;;;;;;;;;;26.10;99.90;;;;;;5059769;28;19928;-76
2022/04/27 12:14:50;;;;;;;;;;;25.70;99.90;;;;;;5058712;28;19931;-76
2022/04/27 12:17:31;;;;;;;;;;;25.70;99.90;;;;;;5047105;28;20299;-76
2022/04/27 12:19:58;;;;;;;;;;;25.40;99.90;;;;;;5059951;28;19925;-76
2022/04/27 12:22:26;;;;;;;;;;;25.30;99.90;;;;;;5072958;28;20423;-75
2022/04/27 12:25:00;;;;;;;;;;;25.40;99.90;;;;;;5073352;28;19929;-75
2022/04/27 12:27:28;;;;;;;;;;;25.60;99.90;;;;;;5075235;28;19925;-76
2022/04/27 12:30:04;;;;;;;;;;;25.80;99.90;;;;;;5075021;28;19928;-76
2022/04/27 12:32:32;;;;;;;;;;;25.80;99.90;;;;;;5074317;28;20304;-76
2022/04/27 12:37:50;;;;;;;;;;;26.20;99.90;;;;;;5057428;28;20023;-76
2022/04/27 12:40:17;;;;;;;;;;;26.30;99.90;;;;;;5060009;28;20015;-76
2022/04/27 12:43:00;;;;;;;;;;;26.40;99.90;;;;;;5058749;28;20000;-76
2022/04/27 12:45:27;;;;;;;;;;;26.60;99.90;;;;;;5051301;28;19979;-75
2022/04/27 12:47:54;;;;;;;;;;;26.90;99.90;;;;;;5046888;28;19924;-76
2022/04/27 12:50:21;;;;;;;;;;;26.50;99.90;;;;;;5060710;28;19932;-76
2022/04/27 12:52:49;;;;;;;;;;;26.10;99.90;;;;;;5059548;28;20454;-76
2022/04/27 12:55:17;;;;;;;;;;;26.40;99.90;;;;;;5053583;28;20023;-76
2022/04/27 12:57:44;;;;;;;;;;;27.00;99.90;;;;;;5054325;28;19925;-76
2022/04/27 13:00:12;;;;;;;;;;;27.00;99.90;;;;;;5053907;28;19925;-76
2022/04/27 13:02:39;;;;;;;;;;;26.70;99.90;;;;;;5054197;28;19932;-76
2022/04/27 13:05:08;;;;;;;;;;;26.80;99.90;;;;;;5053044;28;19970;-76
2022/04/27 13:07:34;;;;;;;;;;;26.70;99.90;;;;;;5052845;28;20128;-76
2022/04/27 13:12:47;;;;;;;;;;;27.00;99.90;;;;;;5049969;28;20030;-76
2022/04/27 13:15:14;;;;;;;;;;;27.00;99.90;;;;;;5040409;28;19929;-76
2022/04/27 13:17:42;;;;;;;;;;;27.10;99.90;;;;;;5051963;28;20358;-76
2022/04/27 13:20:09;;;;;;;;;;;27.30;99.90;;;;;;5051574;28;19925;-76
2022/04/27 13:22:36;;;;;;;;;;;26.70;99.90;;;;;;5055980;28;19928;-76
2022/04/27 13:25:05;;;;;;;;;;;26.30;99.90;;;;;;5054890;28;19924;-76
2022/04/27 13:27:32;;;;;;;;;;;26.10;99.90;;;;;;5064694;28;19960;-76
2022/04/27 13:29:59;;;;;;;;;;;26.20;99.90;;;;;;5053619;28;19978;-76
2022/04/27 13:32:26;;;;;;;;;;;26.60;99.90;;;;;;5053486;28;19929;-77
2022/04/27 13:34:53;;;;;;;;;;;26.80;99.90;;;;;;5053589;28;19970;-76
2022/04/27 13:37:19;;;;;;;;;;;26.60;99.90;;;;;;5051616;28;19925;-75
2022/04/27 13:39:47;;;;;;;;;;;25.90;99.90;;;;;;5067935;28;19929;-76
2022/04/27 13:42:15;;;;;;;;;;;25.20;99.90;;;;;;5074702;28;19928;-78
2022/04/27 13:44:42;;;;;;;;;;;24.80;99.90;;;;;;5067709;28;20331;-77
2022/04/27 13:47:09;;;;;;;;;;;24.90;99.90;;;;;;5056877;28;19929;-76
2022/04/27 13:49:36;;;;;;;;;;;24.70;99.90;;;;;;5054039;28;19928;-78
2022/04/27 13:52:03;;;;;;;;;;;24.70;99.90;;;;;;5066087;28;19925;-76
2022/04/27 13:54:30;;;;;;;;;;;24.40;99.90;;;;;;5033618;28;19929;-76
2022/04/27 13:56:57;;;;;;;;;;;23.90;99.90;;;;;;5034282;28;19928;-76
2022/04/27 13:59:25;;;;;;;;;;;23.50;99.90;;;;;;5034509;28;19934;-77
2022/04/27 14:01:52;;;;;;;;;;;23.10;99.90;;;;;;5035519;28;19925;-78
2022/04/27 14:04:19;;;;;;;;;;;22.70;99.90;;;;;;5048594;28;19924;-77
2022/04/27 14:06:46;;;;;;;;;;;23.30;99.90;;;;;;5048416;28;19928;-77
2022/04/27 14:09:13;;;;;;;;;;;24.10;99.90;;;;;;5049607;28;19948;-76
2022/04/27 14:14:25;;;;;;;;;;;25.20;99.90;;;;;;5062457;28;19921;-77
2022/04/27 14:19:36;;;;;;;;;;;25.70;99.90;;;;;;5051195;28;19943;-76
2022/04/27 14:22:03;;;;;;;;;;;25.40;99.90;;;;;;5052190;28;19944;-77
2022/04/27 14:24:31;;;;;;;;;;;25.50;99.90;;;;;;5052456;28;20381;-78
2022/04/27 14:26:58;;;;;;;;;;;25.80;99.90;;;;;;5053028;28;19939;-76
2022/04/27 14:29:26;;;;;;;;;;;26.30;99.90;;;;;;5051024;28;19925;-77
2022/04/27 14:31:55;;;;;;;;;;;26.20;99.90;;;;;;5053579;28;19928;-77
2022/04/27 14:34:22;;;;;;;;;;;26.20;99.90;;;;;;5052915;28;19925;-77
2022/04/27 14:36:49;;;;;;;;;;;26.30;99.90;;;;;;5053515;28;20308;-76
2022/04/27 14:39:16;;;;;;;;;;;26.10;99.90;;;;;;5052841;28;19932;-76
2022/04/27 14:41:43;;;;;;;;;;;26.10;99.90;;;;;;5053243;28;19924;-77
2022/04/27 14:44:11;;;;;;;;;;;26.10;99.90;;;;;;5053064;28;20392;-76
2022/04/27 14:46:40;;;;;;;;;;;26.00;99.90;;;;;;5053106;28;19929;-76
2022/04/27 14:49:07;;;;;;;;;;;26.00;99.90;;;;;;5060110;28;19935;-76
2022/04/27 14:51:34;;;;;;;;;;;25.80;99.90;;;;;;5053266;28;19925;-77
2022/04/27 14:54:00;;;;;;;;;;;25.80;99.90;;;;;;5052963;28;19948;-77
2022/04/27 14:56:27;;;;;;;;;;;25.60;99.90;;;;;;5053137;28;19924;-77
2022/04/27 14:58:54;;;;;;;;;;;25.90;99.90;;;;;;5048031;28;19935;-76
2022/04/27 15:01:21;;;;;;;;;;;26.00;99.90;;;;;;5066567;28;19924;-76
2022/04/27 15:03:49;;;;;;;;;;;25.60;99.90;;;;;;5051905;28;19925;-76
2022/04/27 15:06:16;;;;;;;;;;;25.70;99.90;;;;;;5071517;28;19924;-76
2022/04/27 15:08:43;;;;;;;;;;;26.50;99.90;;;;;;5072448;28;19934;-77
2022/04/27 15:11:09;;;;;;;;;;;26.30;99.90;;;;;;5064118;28;19963;-77